createdAt,value
2023-03-04T00:00:57.461Z,49.50
2023-03-04T00:03:25.656Z,47.17
2023-03-04T00:05:53.698Z,51.23
2023-03-04T00:08:21.804Z,50.20
2023-03-04T00:10:49.823Z,47.70
2023-03-04T00:13:21.310Z,46.23
2023-03-04T00:15:49.750Z,42.73
2023-03-04T00:18:17.812Z,45.63
2023-03-04T00:20:46.200Z,47.20
2023-03-04T00:23:14.178Z,49.87
2023-03-04T00:25:43.623Z,46.10
2023-03-04T00:28:11.759Z,45.80
2023-03-04T00:30:41.326Z,49.07
2023-03-04T00:33:09.297Z,51.33
2023-03-04T00:35:37.526Z,54.73
2023-03-04T00:38:05.630Z,48.80
2023-03-04T00:40:33.623Z,51.70
2023-03-04T00:43:01.735Z,48.67
2023-03-04T00:45:29.822Z,53.77
2023-03-04T00:47:59.321Z,55.33
2023-03-04T00:50:27.437Z,52.37
2023-03-04T00:52:55.419Z,51.70
2023-03-04T00:55:23.383Z,50.47
2023-03-04T00:57:51.336Z,55.13
2023-03-04T01:00:20.055Z,56.50
2023-03-04T01:02:48.170Z,55.47
2023-03-04T01:05:17.747Z,56.13
2023-03-04T01:07:45.823Z,57.93
2023-03-04T01:10:16.001Z,52.10
2023-03-04T01:12:44.096Z,53.47
2023-03-04T01:15:14.264Z,49.93
2023-03-04T01:17:42.688Z,49.07
2023-03-04T01:20:12.433Z,49.93
2023-03-04T01:22:41.972Z,51.47
2023-03-04T01:25:11.001Z,50.23
2023-03-04T01:27:48.023Z,46.00
2023-03-04T01:30:16.511Z,49.70
2023-03-04T01:32:44.515Z,54.83
2023-03-04T01:35:13.052Z,54.70
2023-03-04T01:37:42.414Z,53.57
2023-03-04T01:40:11.956Z,55.70
2023-03-04T01:42:40.302Z,57.63
2023-03-04T01:45:12.913Z,56.27
2023-03-04T01:47:41.274Z,64.80
2023-03-04T01:50:18.174Z,62.80
2023-03-04T01:52:47.571Z,59.97
2023-03-04T01:55:19.922Z,61.03
2023-03-04T01:57:49.189Z,60.50
2023-03-04T02:00:26.899Z,56.80
2023-03-04T02:02:58.404Z,59.10
2023-03-04T02:05:26.867Z,60.10
2023-03-04T02:07:57.254Z,58.87
2023-03-04T02:10:25.825Z,59.60
2023-03-04T02:12:54.292Z,55.30
2023-03-04T02:15:23.203Z,59.23
2023-03-04T02:17:51.670Z,60.83
2023-03-04T02:20:32.267Z,61.73
2023-03-04T02:23:09.050Z,60.27
2023-03-04T02:25:43.781Z,60.17
2023-03-04T02:28:13.298Z,55.23
2023-03-04T02:30:41.698Z,53.63
2023-03-04T02:33:17.376Z,59.10
2023-03-04T02:35:45.650Z,54.87
2023-03-04T02:38:14.013Z,54.77
2023-03-04T02:40:45.046Z,52.93
2023-03-04T02:43:14.593Z,52.73
2023-03-04T02:45:44.913Z,55.70
2023-03-04T02:48:14.617Z,54.97
2023-03-04T02:50:45.274Z,51.20
2023-03-04T02:53:13.467Z,52.33
2023-03-04T02:55:42.416Z,54.50
2023-03-04T02:58:11.540Z,53.50
2023-03-04T03:00:42.019Z,50.87
2023-03-04T03:03:10.841Z,47.73
2023-03-04T03:05:42.038Z,49.90
2023-03-04T03:08:10.335Z,46.17
2023-03-04T03:10:38.314Z,47.17
2023-03-04T03:13:06.317Z,46.00
2023-03-04T03:15:34.256Z,42.13
2023-03-04T03:18:03.605Z,44.40
2023-03-04T03:20:31.565Z,43.93
2023-03-04T03:22:59.486Z,47.67
2023-03-04T03:25:27.589Z,45.57
2023-03-04T03:27:55.717Z,47.17
2023-03-04T03:30:23.798Z,42.83
2023-03-04T03:32:51.894Z,43.57
2023-03-04T03:35:21.532Z,45.27
2023-03-04T03:37:50.129Z,46.03
2023-03-04T03:40:18.391Z,47.33
2023-03-04T03:42:46.497Z,48.07
2023-03-04T03:45:17.410Z,51.33
2023-03-04T03:47:45.342Z,48.73
2023-03-04T03:50:13.858Z,52.73
2023-03-04T03:52:43.348Z,49.17
2023-03-04T03:55:11.548Z,44.23
2023-03-04T03:57:39.733Z,46.80
2023-03-04T04:00:09.653Z,44.60
2023-03-04T04:02:37.773Z,48.33
2023-03-04T04:05:07.102Z,48.13
2023-03-04T04:07:35.385Z,49.20
2023-03-04T04:10:05.776Z,45.67
2023-03-04T04:12:36.507Z,46.00
2023-03-04T04:15:04.989Z,47.30
2023-03-04T04:17:33.397Z,46.33
2023-03-04T04:20:01.686Z,46.63
2023-03-04T04:22:29.812Z,49.03
2023-03-04T04:24:57.889Z,48.37
2023-03-04T04:27:27.328Z,48.67
2023-03-04T04:29:55.345Z,51.20
2023-03-04T04:32:25.859Z,53.23
2023-03-04T04:34:53.820Z,53.40
2023-03-04T04:37:21.906Z,52.87
2023-03-04T04:39:51.789Z,51.20
2023-03-04T04:42:19.999Z,49.57
2023-03-04T04:44:49.665Z,51.10
2023-03-04T04:47:17.901Z,51.60
2023-03-04T04:49:45.929Z,55.80
2023-03-04T04:52:13.926Z,52.70
2023-03-04T04:54:41.968Z,49.77
2023-03-04T04:57:09.932Z,52.30
2023-03-04T04:59:40.441Z,46.97
2023-03-04T05:02:09.851Z,50.70
2023-03-04T05:04:37.827Z,50.27
2023-03-04T05:07:05.794Z,49.67
2023-03-04T05:09:33.849Z,47.70
2023-03-04T05:12:02.045Z,48.63
2023-03-04T05:14:30.236Z,48.10
2023-03-04T05:16:58.254Z,47.97
2023-03-04T05:19:27.915Z,45.13
2023-03-04T05:21:55.920Z,47.17
2023-03-04T05:24:23.883Z,47.00
2023-03-04T05:26:53.926Z,50.00
2023-03-04T05:29:21.993Z,47.27
2023-03-04T05:31:50.035Z,45.67
2023-03-04T05:34:20.484Z,49.07
2023-03-04T05:36:50.352Z,50.83
2023-03-04T05:39:18.426Z,49.00
2023-03-04T05:41:46.509Z,48.77
2023-03-04T05:44:14.485Z,43.13
2023-03-04T05:46:42.538Z,44.57
2023-03-04T05:49:10.623Z,47.17
2023-03-04T05:51:38.539Z,46.53
2023-03-04T05:54:08.031Z,48.57
2023-03-04T05:56:36.024Z,46.83
2023-03-04T05:59:06.135Z,47.93
2023-03-04T06:01:34.198Z,47.17
2023-03-04T06:04:02.253Z,45.67
2023-03-04T06:06:30.523Z,48.60
2023-03-04T06:08:59.260Z,48.27
2023-03-04T06:11:28.697Z,46.17
2023-03-04T06:13:56.884Z,48.47
2023-03-04T06:16:24.978Z,44.53
2023-03-04T06:18:52.903Z,49.43
2023-03-04T06:21:21.065Z,46.17
2023-03-04T06:23:49.063Z,45.90
2023-03-04T06:26:17.543Z,44.63
2023-03-04T06:28:46.996Z,43.93
2023-03-04T06:31:15.003Z,43.67
2023-03-04T06:33:43.182Z,46.60
2023-03-04T06:36:11.237Z,47.50
2023-03-04T06:38:39.195Z,44.70
2023-03-04T06:41:09.370Z,43.07
2023-03-04T06:43:38.059Z,45.33
2023-03-04T06:46:07.568Z,46.40
2023-03-04T06:48:38.524Z,46.47
2023-03-04T06:51:08.036Z,47.90
2023-03-04T06:53:40.335Z,45.23
2023-03-04T06:56:10.180Z,47.27
2023-03-04T06:58:38.620Z,45.30
2023-03-04T07:01:19.245Z,44.17
2023-03-04T07:03:48.184Z,41.70
2023-03-04T07:06:18.755Z,44.53
2023-03-04T07:08:49.863Z,43.53
2023-03-04T07:11:18.701Z,42.23
2023-03-04T07:13:49.469Z,45.93
2023-03-04T07:16:22.476Z,45.87
2023-03-04T07:18:53.501Z,45.40
2023-03-04T07:21:21.540Z,45.40
2023-03-04T07:23:49.600Z,44.93
2023-03-04T07:26:17.924Z,44.07
2023-03-04T07:28:45.896Z,45.93
2023-03-04T07:31:20.458Z,45.97
2023-03-04T07:33:49.865Z,41.40
2023-03-04T07:36:19.757Z,44.03
2023-03-04T07:38:51.594Z,46.30
2023-03-04T07:41:20.027Z,47.57
2023-03-04T07:43:48.032Z,46.47
2023-03-04T07:46:16.334Z,44.93
2023-03-04T07:48:44.649Z,46.83
2023-03-04T07:51:16.377Z,45.77
2023-03-04T07:53:46.673Z,47.53
2023-03-04T07:56:16.843Z,46.03
2023-03-04T07:58:45.514Z,45.07
2023-03-04T08:01:18.497Z,42.93
2023-03-04T08:03:46.860Z,45.63
2023-03-04T08:06:19.432Z,43.23
2023-03-04T08:08:48.432Z,45.00
2023-03-04T08:11:18.248Z,44.10
2023-03-04T08:13:46.566Z,43.60
2023-03-04T08:16:16.632Z,42.83
2023-03-04T08:18:45.256Z,44.07
2023-03-04T08:21:14.083Z,42.57
2023-03-04T08:23:44.644Z,39.67
2023-03-04T08:26:15.012Z,41.47
2023-03-04T08:28:43.310Z,42.63
2023-03-04T08:31:11.537Z,41.13
2023-03-04T08:33:39.952Z,43.43
2023-03-04T08:36:08.670Z,41.67
2023-03-04T08:38:36.877Z,41.27
2023-03-04T08:41:06.601Z,42.90
2023-03-04T08:43:35.642Z,41.47
2023-03-04T08:46:04.764Z,40.10
2023-03-04T08:48:33.395Z,38.80
2023-03-04T08:51:01.720Z,37.53
2023-03-04T08:53:29.680Z,41.43
2023-03-04T08:55:57.723Z,35.17
2023-03-04T08:58:27.126Z,39.40
2023-03-04T09:00:55.081Z,36.20
2023-03-04T09:03:23.143Z,38.63
2023-03-04T09:05:51.236Z,38.83
2023-03-04T09:08:22.254Z,36.33
2023-03-04T09:10:55.203Z,36.67
2023-03-04T09:13:26.159Z,32.97
2023-03-04T09:15:55.908Z,34.30
2023-03-04T09:18:29.309Z,31.27
2023-03-04T09:20:57.419Z,28.53
2023-03-04T09:23:25.539Z,29.73
2023-03-04T09:25:55.809Z,27.30
2023-03-04T09:28:23.827Z,25.37
2023-03-04T09:30:52.022Z,26.27
2023-03-04T09:33:21.607Z,25.67
2023-03-04T09:35:50.138Z,25.37
2023-03-04T09:38:18.359Z,23.27
2023-03-04T09:40:49.800Z,24.37
2023-03-04T09:43:23.647Z,23.57
2023-03-04T09:45:54.508Z,22.60
2023-03-04T09:48:28.769Z,23.17
2023-03-04T09:51:12.390Z,23.40
2023-03-04T09:53:48.672Z,22.90
2023-03-04T09:56:17.127Z,21.77
2023-03-04T09:58:55.897Z,22.97
2023-03-04T10:01:33.425Z,23.30
2023-03-04T10:04:09.697Z,24.60
2023-03-04T10:06:38.420Z,23.23
2023-03-04T10:09:12.730Z,21.40
2023-03-04T10:11:44.613Z,24.03
2023-03-04T10:14:33.800Z,23.10
2023-03-04T10:17:08.235Z,23.30
2023-03-04T10:19:52.813Z,21.77
2023-03-04T10:22:27.698Z,23.47
2023-03-04T10:24:58.656Z,23.47
2023-03-04T10:27:27.351Z,24.43
2023-03-04T10:29:55.355Z,22.90
2023-03-04T10:32:23.397Z,22.57
2023-03-04T10:34:52.905Z,21.97
2023-03-04T10:37:20.999Z,23.00
2023-03-04T10:39:51.473Z,24.93
2023-03-04T10:42:37.392Z,24.27
2023-03-04T10:45:20.883Z,23.57
2023-03-04T10:47:54.477Z,24.40
2023-03-04T10:50:26.892Z,21.83
2023-03-04T10:52:56.811Z,22.23
2023-03-04T10:55:30.098Z,22.00
2023-03-04T10:58:03.705Z,22.47
2023-03-04T11:00:33.773Z,22.67
2023-03-04T11:03:30.455Z,23.27
2023-03-04T11:06:24.186Z,21.83
2023-03-04T11:08:55.919Z,21.63
2023-03-04T11:11:26.223Z,24.23
2023-03-04T11:13:59.841Z,24.90
2023-03-04T11:16:31.109Z,22.50
2023-03-04T11:19:05.581Z,24.53
2023-03-04T11:21:40.742Z,24.37
2023-03-04T11:24:28.325Z,23.03
2023-03-04T11:27:02.277Z,23.20
2023-03-04T11:29:34.301Z,22.73
2023-03-04T11:32:08.366Z,22.40
2023-03-04T11:34:44.418Z,25.83
2023-03-04T11:37:22.749Z,21.63
2023-03-04T11:39:54.212Z,24.13
2023-03-04T11:42:32.958Z,24.60
2023-03-04T11:45:01.288Z,23.83
2023-03-04T11:47:45.283Z,24.30
2023-03-04T11:50:28.615Z,22.50
2023-03-04T11:53:22.183Z,25.10
2023-03-04T11:56:04.231Z,24.13
2023-03-04T11:59:02.584Z,24.00
2023-03-04T12:01:39.368Z,22.90
2023-03-04T12:04:26.747Z,22.97
2023-03-04T12:07:10.065Z,24.03
2023-03-04T12:09:50.264Z,23.23
2023-03-04T12:12:31.983Z,22.87
2023-03-04T12:15:10.236Z,21.90
2023-03-04T12:17:51.810Z,23.73
2023-03-04T12:20:40.585Z,22.30
2023-03-04T12:23:24.960Z,22.67
2023-03-04T12:26:01.781Z,24.53
2023-03-04T12:28:52.520Z,20.93
2023-03-04T12:31:44.005Z,23.53
2023-03-04T12:34:32.216Z,23.13
2023-03-04T12:37:30.240Z,21.07
2023-03-04T12:40:19.519Z,23.47
2023-03-04T12:43:03.344Z,25.10
2023-03-04T12:45:39.530Z,22.87
2023-03-04T12:48:15.463Z,24.37
2023-03-04T12:50:59.445Z,25.47
2023-03-04T12:53:36.469Z,23.87
2023-03-04T12:56:08.597Z,24.07
2023-03-04T12:58:40.245Z,23.07
2023-03-04T13:01:16.169Z,23.47
2023-03-04T13:03:58.375Z,23.53
2023-03-04T13:06:47.321Z,23.37
2023-03-04T13:09:25.672Z,22.53
2023-03-04T13:12:03.430Z,22.87
2023-03-04T13:14:35.403Z,21.90
2023-03-04T13:17:25.464Z,24.00
2023-03-04T13:19:58.199Z,22.33
2023-03-04T13:22:39.521Z,25.97
2023-03-04T13:25:34.201Z,21.73
2023-03-04T13:28:15.580Z,23.37
2023-03-04T13:31:08.436Z,23.07
2023-03-04T13:34:02.147Z,23.00
2023-03-04T13:36:57.713Z,21.63
2023-03-04T13:39:32.196Z,22.77
2023-03-04T13:42:01.058Z,22.83
2023-03-04T13:44:56.360Z,22.33
2023-03-04T13:47:32.924Z,22.40
2023-03-04T13:50:25.459Z,23.83
2023-03-04T13:53:02.676Z,23.13
2023-03-04T13:55:38.628Z,22.43
2023-03-04T13:58:19.874Z,22.80
2023-03-04T14:00:55.830Z,22.60
2023-03-04T14:03:28.418Z,19.90
2023-03-04T14:06:20.709Z,25.27
2023-03-04T14:08:50.233Z,21.83
2023-03-04T14:11:26.292Z,21.10
2023-03-04T14:13:55.925Z,22.80
2023-03-04T14:16:27.542Z,20.50
2023-03-04T14:19:02.538Z,21.47
2023-03-04T14:21:31.701Z,22.00
2023-03-04T14:24:05.887Z,21.33
2023-03-04T14:26:34.825Z,21.53
2023-03-04T14:29:04.107Z,23.80
2023-03-04T14:31:37.294Z,22.33
2023-03-04T14:34:07.005Z,23.57
2023-03-04T14:36:37.489Z,23.93
2023-03-04T14:39:08.540Z,22.40
2023-03-04T14:41:40.343Z,22.23
2023-03-04T14:44:14.574Z,22.70
2023-03-04T14:46:56.915Z,21.73
2023-03-04T14:49:36.632Z,24.07
2023-03-04T14:52:06.604Z,21.50
2023-03-04T14:54:37.760Z,24.23
2023-03-04T14:57:26.710Z,21.27
2023-03-04T14:59:55.126Z,23.33
2023-03-04T15:02:31.464Z,23.07
2023-03-04T15:05:16.421Z,22.33
2023-03-04T15:07:55.995Z,22.33
2023-03-04T15:10:26.973Z,22.37
2023-03-04T15:13:00.040Z,21.57
2023-03-04T15:15:41.056Z,24.77
2023-03-04T15:18:33.343Z,22.80
2023-03-04T15:21:04.691Z,22.20
2023-03-04T15:23:34.298Z,23.53
2023-03-04T15:26:04.377Z,23.07
2023-03-04T15:28:35.656Z,22.90
2023-03-04T15:31:03.704Z,22.47
2023-03-04T15:33:31.688Z,22.83
2023-03-04T15:36:01.388Z,23.40
2023-03-04T15:38:31.305Z,24.63
2023-03-04T15:41:02.138Z,22.73
2023-03-04T15:43:30.334Z,22.53
2023-03-04T15:45:58.307Z,24.43
2023-03-04T15:48:26.388Z,25.03
2023-03-04T15:50:57.474Z,23.13
2023-03-04T15:53:32.755Z,23.13
2023-03-04T15:56:04.167Z,25.97
2023-03-04T15:58:35.143Z,25.07
2023-03-04T16:01:03.828Z,28.90
2023-03-04T16:03:32.019Z,25.03
2023-03-04T16:06:00.082Z,24.50
2023-03-04T16:08:28.093Z,28.47
2023-03-04T16:10:57.485Z,24.00
2023-03-04T16:13:25.857Z,22.70
2023-03-04T16:15:53.938Z,26.23
2023-03-04T16:18:22.141Z,26.37
2023-03-04T16:20:51.004Z,26.93
2023-03-04T16:23:22.408Z,31.70
2023-03-04T16:25:53.668Z,27.33
2023-03-04T16:28:26.011Z,27.57
2023-03-04T16:30:55.187Z,29.20
2023-03-04T16:33:23.381Z,29.57
2023-03-04T16:35:52.392Z,26.83
2023-03-04T16:38:26.143Z,28.90
2023-03-04T16:40:57.273Z,28.93
2023-03-04T16:43:26.871Z,27.40
2023-03-04T16:45:54.901Z,28.87
2023-03-04T16:48:22.950Z,28.97
2023-03-04T16:50:51.413Z,29.50
2023-03-04T16:53:28.175Z,28.27
2023-03-04T16:55:56.503Z,26.87
2023-03-04T16:58:26.067Z,29.43
2023-03-04T17:00:54.212Z,31.03
2023-03-04T17:03:22.373Z,30.33
2023-03-04T17:05:50.344Z,25.93
2023-03-04T17:08:18.724Z,28.87
2023-03-04T17:10:47.463Z,28.70
2023-03-04T17:13:15.694Z,29.50
2023-03-04T17:15:46.339Z,30.43
2023-03-04T17:18:14.594Z,31.70
2023-03-04T17:20:42.579Z,30.00
2023-03-04T17:23:10.686Z,31.27
2023-03-04T17:25:38.701Z,29.80
2023-03-04T17:28:09.130Z,27.37
2023-03-04T17:30:37.215Z,29.27
2023-03-04T17:33:07.069Z,36.63
2023-03-04T17:35:35.284Z,30.37
2023-03-04T17:38:03.482Z,30.00
2023-03-04T17:40:31.626Z,31.43
2023-03-04T17:42:59.788Z,33.60
2023-03-04T17:45:27.845Z,34.00
2023-03-04T17:47:55.954Z,31.23
2023-03-04T17:50:25.636Z,41.20
2023-03-04T17:52:53.863Z,36.63
2023-03-04T17:55:22.016Z,38.27
2023-03-04T17:57:53.020Z,37.53
2023-03-04T18:00:22.008Z,37.87
2023-03-04T18:02:49.973Z,38.50
2023-03-04T18:05:17.953Z,38.23
2023-03-04T18:07:52.847Z,36.17
2023-03-04T18:10:21.239Z,32.87
2023-03-04T18:12:49.203Z,34.90
2023-03-04T18:15:17.225Z,32.97
2023-03-04T18:17:46.145Z,31.50
2023-03-04T18:20:14.978Z,32.27
2023-03-04T18:22:43.277Z,33.13
2023-03-04T18:25:13.554Z,36.20
2023-03-04T18:27:42.064Z,34.57
2023-03-04T18:30:12.113Z,35.50
2023-03-04T18:32:51.391Z,35.77
2023-03-04T18:35:20.716Z,34.23
2023-03-04T18:37:49.448Z,39.17
2023-03-04T18:40:19.300Z,35.80
2023-03-04T18:42:47.363Z,39.83
2023-03-04T18:45:17.312Z,37.47
2023-03-04T18:47:49.609Z,35.13
2023-03-04T18:50:18.094Z,39.43
2023-03-04T18:52:47.824Z,37.57
2023-03-04T18:55:16.410Z,41.20
2023-03-04T18:57:50.286Z,38.03
2023-03-04T19:00:20.995Z,39.13
2023-03-04T19:02:52.903Z,40.70
2023-03-04T19:05:23.119Z,41.17
2023-03-04T19:07:51.433Z,40.47
2023-03-04T19:10:19.771Z,41.50
2023-03-04T19:12:51.678Z,40.47
2023-03-04T19:15:20.310Z,38.67
2023-03-04T19:17:48.002Z,43.10
